LGRX/GPA METAR and TAF weather

Enter ICAO airport designator
Station Type Date Time Source
LGRX METAR 2022/01/29 14:20 UTC NOAA

LGRX 291420Z 04020G35KT 9999 SCT025 OVC070 08/03 Q1015


Station Type Date Time Source
LGRX Decoded METAR 2022/01/29 14:20 UTC NOAA

Araxos Airport , Greece (LGRX) 38-09N 021-25E 12M
Jan 29, 2022 - 09:20 AM EST / 2022.01.29 1420 UTC
Wind: from the NE (040 degrees) at 23 MPH (20 KT) gusting to 40 MPH (35 KT):0
Visibility: greater than 7 mile(s):0
Sky conditions: overcast
Temperature: 46 F (8 C)
Dew Point: 37 F (3 C)
Relative Humidity: 70%
Pressure (altimeter): 29.97 in. Hg (1015 hPa)
ob: LGRX 291420Z 04020G35KT 9999 SCT025 OVC070 08/03 Q1015
cycle: 14

Station Type Date Time Source
LGRX TAF 2020/03/18 09:39 UTC NOAA

TAF LGRX 180800Z 1809/1821 33006KT 9999 FEW030
BECMG 1816/1818 07010KT

Example: see airport list